createdAt,value
2023-05-17T00:00:49.905Z,0.75
2023-05-17T00:03:49.829Z,0.85
2023-05-17T00:06:49.855Z,0.85
2023-05-17T00:09:49.856Z,0.5
2023-05-17T00:12:49.849Z,0.4
2023-05-17T00:15:49.837Z,0.45
2023-05-17T00:18:50.216Z,0.55
2023-05-17T00:21:49.937Z,0.75
2023-05-17T00:24:49.844Z,0.65
2023-05-17T00:27:49.918Z,0.65
2023-05-17T00:30:49.906Z,0.75
2023-05-17T00:33:49.825Z,0.65
2023-05-17T00:36:49.829Z,0.75
2023-05-17T00:39:49.796Z,0.8
2023-05-17T00:42:49.829Z,0.75
2023-05-17T00:45:49.798Z,1
2023-05-17T00:48:49.976Z,0.8
2023-05-17T00:51:49.897Z,0.75
2023-05-17T00:54:49.847Z,0.7
2023-05-17T00:57:49.869Z,0.75
2023-05-17T01:00:49.916Z,0.8
2023-05-17T01:03:50.299Z,1.05
2023-05-17T01:06:49.929Z,1.05
2023-05-17T01:09:49.895Z,0.85
2023-05-17T01:12:49.924Z,1.05
2023-05-17T01:15:49.914Z,1.1
2023-05-17T01:18:50.243Z,0.95
2023-05-17T01:21:49.962Z,0.9
2023-05-17T01:24:49.961Z,0.9
2023-05-17T01:27:49.977Z,1.1
2023-05-17T01:30:49.848Z,1.05
2023-05-17T01:33:50.240Z,1.15
2023-05-17T01:36:49.921Z,1.25
2023-05-17T01:39:49.933Z,1.05
2023-05-17T01:42:49.943Z,1.1
2023-05-17T01:45:49.850Z,1.15
2023-05-17T01:48:50.788Z,1
2023-05-17T01:51:49.933Z,1
2023-05-17T01:54:49.883Z,0.7
2023-05-17T01:57:49.974Z,1.05
2023-05-17T02:00:49.940Z,0.65
2023-05-17T02:03:50.065Z,0.35
2023-05-17T02:06:49.940Z,0.7
2023-05-17T02:09:49.913Z,0.85
2023-05-17T02:12:49.958Z,0.35
2023-05-17T02:15:50.075Z,0.55
2023-05-17T02:18:50.064Z,0.45
2023-05-17T02:21:50.004Z,0.55
2023-05-17T02:24:50.004Z,0.2
2023-05-17T02:27:49.980Z,0.65
2023-05-17T02:30:49.919Z,0.45
2023-05-17T02:33:50.039Z,0.7
2023-05-17T02:36:50.034Z,0.55
2023-05-17T02:39:49.893Z,0.65
2023-05-17T02:42:49.971Z,0.65
2023-05-17T02:45:49.973Z,0.85
2023-05-17T02:48:50.016Z,0.7
2023-05-17T02:51:49.982Z,0.7
2023-05-17T02:54:49.928Z,0.75
2023-05-17T02:57:49.990Z,0.6
2023-05-17T03:00:50.005Z,0.6
2023-05-17T03:03:50.480Z,0.7
2023-05-17T03:06:50.114Z,0.9
2023-05-17T03:09:50.071Z,1.2
2023-05-17T03:12:49.978Z,0.8
2023-05-17T03:15:50.016Z,0.9
2023-05-17T03:18:50.354Z,1.1
2023-05-17T03:21:49.965Z,1.25
2023-05-17T03:24:49.969Z,0.95
2023-05-17T03:27:50.093Z,0.85
2023-05-17T03:30:50.041Z,0.7
2023-05-17T03:33:50.433Z,1
2023-05-17T03:36:50.020Z,0.75
2023-05-17T03:39:49.992Z,0.9
2023-05-17T03:42:49.961Z,0.95
2023-05-17T03:45:50.102Z,0.45
2023-05-17T03:48:50.242Z,0.95
2023-05-17T03:51:49.976Z,0.65
2023-05-17T03:54:50.054Z,0.7
2023-05-17T03:57:50.025Z,0.7
2023-05-17T04:00:49.959Z,0.55
2023-05-17T04:03:50.055Z,1.2
2023-05-17T04:06:50.028Z,0.7
2023-05-17T04:09:50.062Z,0.75
2023-05-17T04:12:50.001Z,0.85
2023-05-17T04:15:50.105Z,0.75
2023-05-17T04:18:50.153Z,1.25
2023-05-17T04:21:50.073Z,1.2
2023-05-17T04:24:49.994Z,0.95
2023-05-17T04:27:50.155Z,0.75
2023-05-17T04:30:50.064Z,0.5
2023-05-17T04:33:50.164Z,1.1
2023-05-17T04:36:50.054Z,1.3
2023-05-17T04:39:50.026Z,0.85
2023-05-17T04:42:50.088Z,0.85
2023-05-17T04:45:50.077Z,1.1
2023-05-17T04:48:50.193Z,0.75
2023-05-17T04:51:50.075Z,0.6
2023-05-17T04:54:50.008Z,0.65
2023-05-17T04:57:50.036Z,1
2023-05-17T05:00:50.194Z,0.7
2023-05-17T05:03:50.169Z,0.7
2023-05-17T05:06:50.121Z,1
2023-05-17T05:09:50.026Z,0.8
2023-05-17T05:12:50.053Z,1
2023-05-17T05:15:50.180Z,0.9
2023-05-17T05:18:50.502Z,0.75
2023-05-17T05:21:50.119Z,0.75
2023-05-17T05:24:50.058Z,1.05
2023-05-17T05:27:50.025Z,1.45
2023-05-17T05:30:50.105Z,1.1
2023-05-17T05:33:50.249Z,0.8
2023-05-17T05:36:50.111Z,1.3
2023-05-17T05:39:50.068Z,1.9
2023-05-17T05:42:50.062Z,1.45
2023-05-17T05:45:50.124Z,1.3
2023-05-17T05:48:50.146Z,0.85
2023-05-17T05:51:50.169Z,1.1
2023-05-17T05:54:50.246Z,0.95
2023-05-17T05:57:50.140Z,0.95
2023-05-17T06:00:50.108Z,1.5
2023-05-17T06:03:50.158Z,1
2023-05-17T06:06:50.505Z,1.05
2023-05-17T06:09:50.183Z,1.35
2023-05-17T06:12:50.128Z,1
2023-05-17T06:15:50.208Z,1.4
2023-05-17T06:18:52.704Z,1.45
2023-05-17T06:21:50.183Z,1.45
2023-05-17T06:24:50.100Z,1.45
2023-05-17T06:27:50.166Z,1.2
2023-05-17T06:30:50.120Z,1.25
2023-05-17T06:33:50.162Z,0.9
2023-05-17T06:36:50.192Z,1.15
2023-05-17T06:39:59.961Z,1
2023-05-17T06:42:51.192Z,1.65
2023-05-17T06:45:50.234Z,1.1
2023-05-17T06:48:52.793Z,1.6
2023-05-17T06:51:50.214Z,1.6
2023-05-17T06:54:50.249Z,2
2023-05-17T06:57:50.148Z,1.3
2023-05-17T07:00:50.218Z,1.7
2023-05-17T07:03:50.486Z,3.15
2023-05-17T07:06:50.167Z,2.9
2023-05-17T07:09:50.471Z,2.1
2023-05-17T07:12:50.316Z,3.3
2023-05-17T07:15:50.208Z,2.55
2023-05-17T07:18:50.302Z,2.25
2023-05-17T07:21:50.238Z,2.9
2023-05-17T07:24:50.141Z,1.1
2023-05-17T07:27:50.398Z,1.7
2023-05-17T07:30:50.221Z,1.45
2023-05-17T07:33:50.287Z,1.3
2023-05-17T07:36:50.260Z,1.8
2023-05-17T07:39:50.501Z,1.25
2023-05-17T07:42:50.248Z,2.85
2023-05-17T07:45:50.357Z,2.95
2023-05-17T07:48:50.515Z,2.3
2023-05-17T07:51:50.156Z,2.95
2023-05-17T07:54:50.293Z,2.95
2023-05-17T07:57:51.564Z,2.5
2023-05-17T08:00:53.179Z,1.7
2023-05-17T08:03:50.232Z,2.25
2023-05-17T08:06:50.444Z,2.3
2023-05-17T08:09:50.252Z,1.9
2023-05-17T08:12:50.255Z,3.05
2023-05-17T08:15:58.478Z,2.75
2023-05-17T08:18:50.469Z,2.3
2023-05-17T08:21:50.308Z,2.85
2023-05-17T08:24:50.339Z,1.65
2023-05-17T08:27:50.253Z,1.4
2023-05-17T08:30:50.226Z,2.5
2023-05-17T08:33:50.456Z,2.35
2023-05-17T08:36:50.355Z,3.1
2023-05-17T08:39:50.374Z,1.95
2023-05-17T08:42:50.251Z,2.4
2023-05-17T08:45:50.353Z,2.5
2023-05-17T08:48:50.421Z,2.15
2023-05-17T08:51:50.277Z,1.7
2023-05-17T08:54:50.358Z,2.1
2023-05-17T08:57:50.329Z,2.3
2023-05-17T09:00:50.305Z,1.3
2023-05-17T09:03:50.398Z,2.2
2023-05-17T09:06:50.272Z,3.45
2023-05-17T09:09:50.237Z,2.35
2023-05-17T09:12:50.471Z,1.5
2023-05-17T09:15:50.305Z,2.55
2023-05-17T09:18:50.764Z,3.1
2023-05-17T09:21:50.372Z,2.25
2023-05-17T09:24:50.338Z,1.55
2023-05-17T09:27:50.385Z,1.2
2023-05-17T09:30:50.358Z,3.15
2023-05-17T09:33:50.421Z,3.05
2023-05-17T09:36:50.361Z,2.35
2023-05-17T09:39:50.294Z,2.55
2023-05-17T09:42:50.332Z,1.9
2023-05-17T09:45:50.314Z,2
2023-05-17T09:48:50.694Z,2.55
2023-05-17T09:51:50.389Z,1.7
2023-05-17T09:54:50.389Z,2.85
2023-05-17T09:57:50.298Z,2.15
2023-05-17T10:00:50.431Z,1.95
2023-05-17T10:03:50.421Z,1.6
2023-05-17T10:06:53.435Z,1.95
2023-05-17T10:09:50.322Z,3.1
2023-05-17T10:12:50.388Z,2.2
2023-05-17T10:15:50.305Z,2.45
2023-05-17T10:18:50.735Z,2.5
2023-05-17T10:21:50.334Z,2
2023-05-17T10:24:50.306Z,2.2
2023-05-17T10:27:50.398Z,2.1
2023-05-17T10:30:50.319Z,2.7
2023-05-17T10:33:50.476Z,2.05
2023-05-17T10:36:50.405Z,1.7
2023-05-17T10:39:50.417Z,2.35
2023-05-17T10:42:50.355Z,2.4
2023-05-17T10:45:50.348Z,2.2
2023-05-17T10:48:50.474Z,3.15
2023-05-17T10:51:50.458Z,2.7
2023-05-17T10:54:50.386Z,3.2
2023-05-17T10:57:52.550Z,2.8
2023-05-17T11:00:50.980Z,2.3
2023-05-17T11:03:50.429Z,2.55
2023-05-17T11:06:50.751Z,1.9
2023-05-17T11:09:50.413Z,2.3
2023-05-17T11:12:50.438Z,2.3
2023-05-17T11:15:50.349Z,2.3
2023-05-17T11:18:50.910Z,3.05
2023-05-17T11:21:50.440Z,2.55
2023-05-17T11:24:50.535Z,3.1
2023-05-17T11:27:50.496Z,2.6
2023-05-17T11:30:50.494Z,3.1
2023-05-17T11:33:50.613Z,3.4
2023-05-17T11:36:50.444Z,2.15
2023-05-17T11:39:50.486Z,2.35
2023-05-17T11:42:50.457Z,2.3
2023-05-17T11:45:53.877Z,2.4
2023-05-17T11:48:50.503Z,2.75
2023-05-17T11:51:50.488Z,2.7
2023-05-17T11:54:50.438Z,3.25
2023-05-17T11:57:50.400Z,2.55
2023-05-17T12:00:50.419Z,2.95
2023-05-17T12:03:50.435Z,3.3
2023-05-17T12:06:50.559Z,1.7
2023-05-17T12:09:50.624Z,2.45
2023-05-17T12:12:50.409Z,3.7
2023-05-17T12:15:50.522Z,3.4
2023-05-17T12:18:53.548Z,2.15
2023-05-17T12:21:50.530Z,1.95
2023-05-17T12:24:50.565Z,3.85
2023-05-17T12:27:50.482Z,3.3
2023-05-17T12:30:50.479Z,2.7
2023-05-17T12:33:50.862Z,3.2
2023-05-17T12:36:50.557Z,2.9
2023-05-17T12:39:50.492Z,2.6
2023-05-17T12:42:50.615Z,2.2
2023-05-17T12:45:50.488Z,2.5
2023-05-17T12:48:50.658Z,3.1
2023-05-17T12:51:50.561Z,2.5
2023-05-17T12:54:50.480Z,3.55
2023-05-17T12:57:50.503Z,2.85
2023-05-17T13:00:50.468Z,2.75
2023-05-17T13:03:50.652Z,1.75
2023-05-17T13:06:50.473Z,2.8
2023-05-17T13:09:50.625Z,2.75
2023-05-17T13:12:50.504Z,2.7
2023-05-17T13:15:50.622Z,3.05
2023-05-17T13:18:50.682Z,3.5
2023-05-17T13:21:50.580Z,3.2
2023-05-17T13:24:50.593Z,2.85
2023-05-17T13:27:50.692Z,2.6
2023-05-17T13:30:50.544Z,2.4
2023-05-17T13:33:50.700Z,2.15
2023-05-17T13:36:50.661Z,3.15
2023-05-17T13:39:50.602Z,2.1
2023-05-17T13:42:50.587Z,2.7
2023-05-17T13:45:50.569Z,2.9
2023-05-17T13:48:50.868Z,2.95
2023-05-17T13:51:50.709Z,2.1
2023-05-17T13:54:50.615Z,3.05
2023-05-17T13:57:50.575Z,2.3
2023-05-17T14:00:50.550Z,2.3
2023-05-17T14:03:50.674Z,2.85
2023-05-17T14:06:54.244Z,2.3
2023-05-17T14:09:50.621Z,2.6
2023-05-17T14:12:50.643Z,1.55
2023-05-17T14:15:50.625Z,2.6
2023-05-17T14:18:50.879Z,2.55
2023-05-17T14:21:50.633Z,3.35
2023-05-17T14:24:50.537Z,3.3
2023-05-17T14:27:50.657Z,2.35
2023-05-17T14:30:50.574Z,2.25
2023-05-17T14:33:50.737Z,3.2
2023-05-17T14:36:50.623Z,2.6
2023-05-17T14:40:05.685Z,2.05
2023-05-17T14:42:50.600Z,2.4
2023-05-17T14:45:50.684Z,2
2023-05-17T14:48:50.877Z,2.3
2023-05-17T14:51:50.714Z,1.7
2023-05-17T14:54:50.660Z,2.05
2023-05-17T14:57:50.739Z,2.1
2023-05-17T15:00:56.250Z,2.2
2023-05-17T15:03:50.839Z,1.85
2023-05-17T15:06:50.687Z,2.15
2023-05-17T15:09:50.656Z,1.9
2023-05-17T15:12:50.691Z,1.45
2023-05-17T15:15:50.620Z,1.95
2023-05-17T15:18:50.958Z,1.9
2023-05-17T15:21:50.604Z,2.05
2023-05-17T15:24:50.609Z,2.2
2023-05-17T15:27:50.683Z,1.75
2023-05-17T15:30:50.657Z,1.95
2023-05-17T15:33:50.684Z,1.65
2023-05-17T15:36:50.658Z,2.5
2023-05-17T15:39:50.756Z,2
2023-05-17T15:42:50.633Z,1.3
2023-05-17T15:45:50.630Z,2
2023-05-17T15:48:50.774Z,2.2
2023-05-17T15:51:50.636Z,2.4
2023-05-17T15:54:50.652Z,2.45
2023-05-17T15:57:50.679Z,2.45
2023-05-17T16:00:50.659Z,2.15
2023-05-17T16:03:50.766Z,2.7
2023-05-17T16:06:50.684Z,2.1
2023-05-17T16:09:50.661Z,1.95
2023-05-17T16:12:50.877Z,1.65
2023-05-17T16:15:50.713Z,1.2
2023-05-17T16:18:50.826Z,1.25
2023-05-17T16:21:51.783Z,1.3
2023-05-17T16:24:51.148Z,1.9
2023-05-17T16:27:50.724Z,1.4
2023-05-17T16:30:50.836Z,1.2
2023-05-17T16:33:50.798Z,1.35
2023-05-17T16:36:50.759Z,1.6
2023-05-17T16:39:50.712Z,1.7
2023-05-17T16:42:50.673Z,1.55
2023-05-17T16:45:50.837Z,1.45
2023-05-17T16:48:50.734Z,1
2023-05-17T16:51:50.761Z,0.6
2023-05-17T16:54:50.718Z,1.45
2023-05-17T16:57:50.725Z,1.75
2023-05-17T17:00:50.758Z,1.2
2023-05-17T17:03:50.813Z,0.75
2023-05-17T17:06:50.725Z,1
2023-05-17T17:09:50.769Z,1.8
2023-05-17T17:12:50.751Z,1.2
2023-05-17T17:15:50.749Z,1.8
2023-05-17T17:18:51.207Z,1.85
2023-05-17T17:21:50.764Z,1.1
2023-05-17T17:24:50.774Z,1.65
2023-05-17T17:27:53.181Z,1.2
2023-05-17T17:30:50.718Z,1.65
2023-05-17T17:33:50.765Z,1.95
2023-05-17T17:36:50.782Z,2
2023-05-17T17:39:50.789Z,1.15
2023-05-17T17:42:50.823Z,1.2
2023-05-17T17:45:50.763Z,1.15
2023-05-17T17:48:50.873Z,0.9
2023-05-17T17:51:50.785Z,1.6
2023-05-17T17:54:50.835Z,1
2023-05-17T17:57:50.794Z,1.1
2023-05-17T18:00:50.808Z,1.05
2023-05-17T18:03:50.793Z,0.85
2023-05-17T18:06:50.794Z,0.95
2023-05-17T18:09:50.783Z,0.4
2023-05-17T18:12:52.888Z,0.7
2023-05-17T18:15:50.779Z,0.15
2023-05-17T18:18:51.012Z,0.4
2023-05-17T18:21:50.740Z,0.6
2023-05-17T18:24:50.832Z,0.2
2023-05-17T18:27:50.858Z,0.1
2023-05-17T18:30:50.822Z,0.3
2023-05-17T18:33:50.917Z,0
2023-05-17T18:36:50.807Z,0
2023-05-17T18:39:50.774Z,0.2
2023-05-17T18:42:50.753Z,0.25
2023-05-17T18:45:50.819Z,0.25
2023-05-17T18:48:50.916Z,0.25
2023-05-17T18:51:50.830Z,0.25
2023-05-17T18:54:50.811Z,0.15
2023-05-17T18:57:50.881Z,0.15
2023-05-17T19:00:50.910Z,0.3
2023-05-17T19:03:50.869Z,0.3
2023-05-17T19:06:50.830Z,0.15
2023-05-17T19:09:50.810Z,0.2
2023-05-17T19:12:50.958Z,0.25
2023-05-17T19:15:50.915Z,0.3
2023-05-17T19:18:51.066Z,0.35
2023-05-17T19:21:50.845Z,0.3
2023-05-17T19:24:50.859Z,0.35
2023-05-17T19:27:50.883Z,0.25
2023-05-17T19:30:50.855Z,0.25
2023-05-17T19:33:50.827Z,0.2
2023-05-17T19:36:50.881Z,0.25
2023-05-17T19:39:50.886Z,0.3
2023-05-17T19:42:50.942Z,0.3
2023-05-17T19:45:50.953Z,0.2
2023-05-17T19:48:50.968Z,0.2
2023-05-17T19:51:50.943Z,0.4
2023-05-17T19:54:50.884Z,0.2
2023-05-17T19:57:50.932Z,0.35
2023-05-17T20:00:50.881Z,0.25
2023-05-17T20:03:51.005Z,0.3
2023-05-17T20:06:52.816Z,0.35
2023-05-17T20:09:50.884Z,0.25
2023-05-17T20:12:50.903Z,0.2
2023-05-17T20:15:51.020Z,0.25
2023-05-17T20:18:51.079Z,0.2
2023-05-17T20:21:50.870Z,0.25
2023-05-17T20:24:51.305Z,0.15
2023-05-17T20:27:50.868Z,0.3
2023-05-17T20:30:50.872Z,0.3
2023-05-17T20:33:50.955Z,0.3
2023-05-17T20:36:50.974Z,0
2023-05-17T20:39:51.009Z,0.45
2023-05-17T20:42:50.979Z,0.35
2023-05-17T20:45:51.066Z,0.35
2023-05-17T20:48:51.115Z,0.05
2023-05-17T20:51:50.910Z,0.2
2023-05-17T20:54:50.951Z,0.25
2023-05-17T20:57:51.016Z,0.35
2023-05-17T21:00:50.966Z,0.35
2023-05-17T21:03:51.311Z,0.3
2023-05-17T21:06:51.069Z,0.35
2023-05-17T21:09:51.010Z,0.3
2023-05-17T21:12:50.979Z,0.3
2023-05-17T21:15:50.947Z,0.35
2023-05-17T21:18:50.998Z,0.3
2023-05-17T21:21:50.883Z,0.3
2023-05-17T21:24:52.866Z,0.35
2023-05-17T21:27:50.945Z,0.25
2023-05-17T21:30:50.975Z,0
2023-05-17T21:33:50.937Z,0.25
2023-05-17T21:36:50.870Z,0.2
2023-05-17T21:39:50.984Z,0.25
2023-05-17T21:42:50.990Z,0.05
2023-05-17T21:45:50.952Z,0.25
2023-05-17T21:48:51.021Z,0.35
2023-05-17T21:51:51.027Z,0.3
2023-05-17T21:54:51.016Z,0.15
2023-05-17T21:57:50.953Z,0.15
2023-05-17T22:00:51.044Z,0.2
2023-05-17T22:03:51.593Z,0
2023-05-17T22:06:50.961Z,0
2023-05-17T22:09:50.963Z,0
2023-05-17T22:12:50.953Z,0
2023-05-17T22:15:51.001Z,0.15
2023-05-17T22:18:51.094Z,0
2023-05-17T22:21:50.962Z,0
2023-05-17T22:24:50.944Z,0
2023-05-17T22:27:51.014Z,0.05
2023-05-17T22:30:50.997Z,0.1
2023-05-17T22:33:51.026Z,0
2023-05-17T22:36:51.079Z,0
2023-05-17T22:39:51.058Z,0.15
2023-05-17T22:42:51.070Z,0
2023-05-17T22:45:51.123Z,0
2023-05-17T22:48:51.066Z,0
2023-05-17T22:51:50.966Z,0.3
2023-05-17T22:54:51.087Z,0.2
2023-05-17T22:57:51.013Z,0.1
2023-05-17T23:00:51.250Z,0.2
2023-05-17T23:03:51.144Z,0
2023-05-17T23:06:51.107Z,0
2023-05-17T23:09:51.073Z,0
2023-05-17T23:12:53.362Z,0
2023-05-17T23:15:51.072Z,0
2023-05-17T23:18:51.164Z,0
2023-05-17T23:21:51.067Z,0
2023-05-17T23:24:51.083Z,0
2023-05-17T23:27:51.071Z,0
2023-05-17T23:30:51.043Z,0
2023-05-17T23:33:51.018Z,0
2023-05-17T23:36:51.100Z,0.15
2023-05-17T23:39:51.006Z,0.05
2023-05-17T23:42:51.062Z,0.3
2023-05-17T23:45:51.143Z,0.25
2023-05-17T23:48:51.100Z,0.15
2023-05-17T23:51:51.021Z,0.2
2023-05-17T23:54:51.048Z,0
2023-05-17T23:57:51.076Z,0.2
